createdAt,value
2024-01-07T00:03:59.800Z,0.00
2024-01-07T00:17:45.176Z,0.00
2024-01-07T00:39:50.883Z,0.00
2024-01-07T00:53:38.319Z,0.00
2024-01-07T00:56:34.983Z,0.00
2024-01-07T01:23:56.556Z,0.00
2024-01-07T01:58:41.644Z,0.00
2024-01-07T02:56:21.148Z,0.00
2024-01-07T03:24:12.200Z,0.00
2024-01-07T03:37:02.705Z,0.00
2024-01-07T04:10:19.010Z,0.00
2024-01-07T04:31:26.502Z,0.00
2024-01-07T04:47:06.580Z,0.00
2024-01-07T04:55:00.881Z,0.00
2024-01-07T05:03:53.265Z,0.00
2024-01-07T05:04:41.116Z,0.00
2024-01-07T05:05:40.128Z,0.00
2024-01-07T05:09:52.674Z,0.00
2024-01-07T05:15:10.634Z,0.00
2024-01-07T05:16:14.227Z,0.00
2024-01-07T05:28:31.277Z,0.00
2024-01-07T05:32:38.163Z,0.00
2024-01-07T05:38:51.029Z,0.00
2024-01-07T05:47:03.308Z,0.00
2024-01-07T05:50:18.060Z,0.00
2024-01-07T05:53:17.600Z,0.00
2024-01-07T06:03:38.467Z,0.00
2024-01-07T06:27:22.483Z,0.00
2024-01-07T06:30:51.044Z,0.00
2024-01-07T06:32:25.076Z,0.00
2024-01-07T06:37:08.252Z,0.00
2024-01-07T06:54:39.748Z,0.00
2024-01-07T07:04:01.898Z,0.00
2024-01-07T07:08:57.061Z,0.00
2024-01-07T07:13:06.631Z,0.00
2024-01-07T07:19:03.986Z,0.00
2024-01-07T07:22:48.456Z,0.00
2024-01-07T07:26:49.405Z,0.00
2024-01-07T07:34:00.305Z,0.00
2024-01-07T07:37:43.103Z,0.00
2024-01-07T07:47:30.604Z,0.00
2024-01-07T07:51:43.987Z,5.62
2024-01-07T07:59:45.993Z,5.62
2024-01-07T08:10:18.210Z,11.25
2024-01-07T08:11:19.462Z,11.25
2024-01-07T08:12:19.268Z,11.25
2024-01-07T08:13:19.343Z,11.25
2024-01-07T08:14:19.292Z,11.25
2024-01-07T08:15:19.397Z,11.25
2024-01-07T08:16:19.421Z,11.25
2024-01-07T08:17:20.627Z,11.25
2024-01-07T08:18:19.680Z,11.25
2024-01-07T08:19:19.539Z,11.25
2024-01-07T08:20:19.394Z,16.88
2024-01-07T08:21:19.262Z,16.88
2024-01-07T08:22:24.169Z,16.88
2024-01-07T08:23:20.593Z,16.88
2024-01-07T08:24:20.541Z,16.88
2024-01-07T08:25:19.591Z,16.88
2024-01-07T08:26:20.059Z,16.88
2024-01-07T08:27:20.838Z,16.88
2024-01-07T08:28:20.429Z,16.88
2024-01-07T08:29:19.310Z,16.88
2024-01-07T08:30:20.076Z,16.88
2024-01-07T08:32:00.080Z,16.88
2024-01-07T08:32:19.417Z,22.50
2024-01-07T08:33:19.522Z,22.50
2024-01-07T08:34:19.412Z,22.50
2024-01-07T08:35:20.723Z,22.50
2024-01-07T08:36:21.892Z,22.50
2024-01-07T08:37:19.210Z,22.50
2024-01-07T08:38:20.303Z,22.50
2024-01-07T08:39:20.492Z,22.50
2024-01-07T08:40:20.409Z,22.50
2024-01-07T08:41:20.236Z,22.50
2024-01-07T08:42:19.134Z,22.50
2024-01-07T08:43:19.190Z,22.50
2024-01-07T08:44:19.186Z,22.50
2024-01-07T08:45:20.043Z,22.50
2024-01-07T08:54:16.860Z,28.12
2024-01-07T08:55:18.663Z,28.12
2024-01-07T09:01:32.787Z,28.12
2024-01-07T09:02:34.558Z,28.12
2024-01-07T09:03:33.838Z,28.12
2024-01-07T09:04:33.729Z,33.75
2024-01-07T09:05:33.764Z,33.75
2024-01-07T09:06:33.745Z,33.75
2024-01-07T09:07:34.280Z,39.38
2024-01-07T09:08:33.701Z,39.38
2024-01-07T09:09:33.777Z,39.38
2024-01-07T09:10:33.663Z,39.38
2024-01-07T09:11:33.651Z,39.38
2024-01-07T09:12:33.677Z,45.00
2024-01-07T09:13:33.605Z,50.62
2024-01-07T09:14:33.697Z,56.25
2024-01-07T09:15:33.760Z,56.25
2024-01-07T09:16:33.756Z,50.62
2024-01-07T09:17:33.828Z,56.25
2024-01-07T09:18:33.766Z,61.88
2024-01-07T09:19:33.682Z,61.88
2024-01-07T09:20:33.678Z,61.88
2024-01-07T09:21:33.635Z,67.50
2024-01-07T09:22:33.563Z,73.12
2024-01-07T09:23:33.584Z,73.12
2024-01-07T09:24:33.651Z,78.75
2024-01-07T09:25:33.582Z,95.62
2024-01-07T09:26:33.900Z,101.25
2024-01-07T09:27:33.582Z,95.62
2024-01-07T09:28:33.799Z,84.38
2024-01-07T09:29:33.544Z,95.62
2024-01-07T09:30:33.862Z,101.25
2024-01-07T09:31:33.594Z,106.88
2024-01-07T09:32:37.200Z,135.00
2024-01-07T09:33:33.804Z,123.75
2024-01-07T09:34:33.552Z,112.50
2024-01-07T09:35:33.517Z,106.88
2024-01-07T09:36:33.558Z,106.88
2024-01-07T09:37:33.640Z,112.50
2024-01-07T09:38:33.459Z,112.50
2024-01-07T09:39:33.646Z,112.50
2024-01-07T09:40:33.447Z,90.00
2024-01-07T09:41:34.382Z,84.38
2024-01-07T09:42:33.519Z,84.38
2024-01-07T09:43:36.511Z,90.00
2024-01-07T09:44:34.635Z,90.00
2024-01-07T09:45:33.472Z,84.38
2024-01-07T09:46:33.522Z,78.75
2024-01-07T09:47:33.555Z,78.75
2024-01-07T09:48:33.701Z,73.12
2024-01-07T09:53:23.187Z,56.25
2024-01-07T09:54:24.330Z,56.25
2024-01-07T09:55:24.472Z,56.25
2024-01-07T09:56:24.288Z,56.25
2024-01-07T09:57:24.296Z,56.25
2024-01-07T09:58:24.352Z,56.25
2024-01-07T09:59:24.264Z,61.88
2024-01-07T10:00:24.590Z,67.50
2024-01-07T10:10:25.108Z,146.25
2024-01-07T10:11:26.345Z,163.12
2024-01-07T10:12:26.395Z,174.38
2024-01-07T10:14:01.311Z,180.00
2024-01-07T10:14:26.319Z,180.00
2024-01-07T10:15:27.964Z,185.62
2024-01-07T10:27:29.782Z,337.50
2024-01-07T10:28:30.956Z,343.12
2024-01-07T10:29:31.030Z,326.25
2024-01-07T10:30:31.916Z,326.25
2024-01-07T10:32:13.479Z,309.38
2024-01-07T10:35:20.192Z,230.62
2024-01-07T10:36:21.456Z,241.88
2024-01-07T10:37:21.362Z,247.50
2024-01-07T10:50:39.317Z,196.88
2024-01-07T10:54:20.628Z,157.50
2024-01-07T11:06:47.704Z,208.12
2024-01-07T11:07:49.355Z,208.12
2024-01-07T11:10:53.974Z,213.75
2024-01-07T11:12:32.176Z,219.38
2024-01-07T11:12:55.743Z,281.25
2024-01-07T11:14:35.909Z,298.12
2024-01-07T11:15:30.662Z,298.12
2024-01-07T11:16:29.741Z,286.88
2024-01-07T11:17:30.847Z,258.75
2024-01-07T11:17:54.593Z,247.50
2024-01-07T11:21:54.847Z,399.38
2024-01-07T11:32:52.873Z,2351.25
2024-01-07T11:34:32.049Z,2148.75
2024-01-07T11:34:54.042Z,1929.38
2024-01-07T11:35:53.984Z,1974.38
2024-01-07T11:37:29.726Z,1096.88
2024-01-07T11:37:53.858Z,624.38
2024-01-07T11:38:55.012Z,495.00
2024-01-07T11:39:53.800Z,478.12
2024-01-07T11:40:53.788Z,450.00
2024-01-07T11:41:53.778Z,450.00
2024-01-07T11:42:53.853Z,433.12
2024-01-07T11:43:53.715Z,433.12
2024-01-07T11:44:53.697Z,427.50
2024-01-07T11:45:54.059Z,421.88
2024-01-07T11:46:53.777Z,416.25
2024-01-07T11:47:53.847Z,433.12
2024-01-07T11:48:54.104Z,433.12
2024-01-07T11:49:55.100Z,444.38
2024-01-07T11:50:56.295Z,433.12
2024-01-07T11:51:53.717Z,416.25
2024-01-07T11:52:55.204Z,405.00
2024-01-07T11:53:53.695Z,393.75
2024-01-07T11:54:53.734Z,399.38
2024-01-07T11:55:53.747Z,399.38
2024-01-07T11:56:53.690Z,399.38
2024-01-07T11:57:53.690Z,410.62
2024-01-07T11:58:53.717Z,399.38
2024-01-07T11:59:53.797Z,405.00
2024-01-07T12:00:53.803Z,382.50
2024-01-07T12:01:53.741Z,393.75
2024-01-07T12:02:53.875Z,405.00
2024-01-07T12:03:53.704Z,393.75
2024-01-07T12:04:53.597Z,388.12
2024-01-07T12:05:53.665Z,399.38
2024-01-07T12:06:53.616Z,388.12
2024-01-07T12:07:53.717Z,376.88
2024-01-07T12:08:53.599Z,376.88
2024-01-07T12:09:53.632Z,354.38
2024-01-07T12:10:53.602Z,348.75
2024-01-07T12:11:53.591Z,354.38
2024-01-07T12:12:53.709Z,348.75
2024-01-07T12:13:53.535Z,337.50
2024-01-07T12:14:53.534Z,326.25
2024-01-07T12:15:53.634Z,320.62
2024-01-07T12:16:53.571Z,326.25
2024-01-07T12:17:53.702Z,320.62
2024-01-07T12:18:53.823Z,315.00
2024-01-07T12:19:53.604Z,331.88
2024-01-07T12:20:53.539Z,348.75
2024-01-07T12:22:29.542Z,348.75
2024-01-07T12:22:53.529Z,354.38
2024-01-07T12:23:53.664Z,365.62
2024-01-07T12:24:53.516Z,337.50
2024-01-07T12:25:53.468Z,343.12
2024-01-07T12:26:53.468Z,348.75
2024-01-07T12:27:53.496Z,354.38
2024-01-07T12:28:53.439Z,382.50
2024-01-07T12:29:53.472Z,360.00
2024-01-07T12:30:53.573Z,315.00
2024-01-07T12:31:53.462Z,309.38
2024-01-07T12:32:53.444Z,315.00
2024-01-07T12:33:53.563Z,292.50
2024-01-07T12:34:53.557Z,286.88
2024-01-07T12:35:53.476Z,275.62
2024-01-07T12:36:53.583Z,241.88
2024-01-07T12:37:53.435Z,241.88
2024-01-07T12:38:53.472Z,247.50
2024-01-07T12:39:53.429Z,253.12
2024-01-07T12:40:53.364Z,236.25
2024-01-07T12:41:53.409Z,208.12
2024-01-07T12:42:53.450Z,191.25
2024-01-07T12:43:53.406Z,191.25
2024-01-07T12:44:53.313Z,185.62
2024-01-07T12:45:53.399Z,180.00
2024-01-07T12:46:53.470Z,168.75
2024-01-07T12:47:53.416Z,168.75
2024-01-07T12:48:53.365Z,174.38
2024-01-07T12:49:53.358Z,168.75
2024-01-07T12:50:54.370Z,168.75
2024-01-07T12:51:53.316Z,157.50
2024-01-07T12:52:53.455Z,157.50
2024-01-07T12:53:53.330Z,157.50
2024-01-07T12:54:53.428Z,157.50
2024-01-07T12:55:53.272Z,151.88
2024-01-07T12:56:54.428Z,146.25
2024-01-07T12:57:53.345Z,135.00
2024-01-07T12:58:53.254Z,140.62
2024-01-07T12:59:53.245Z,146.25
2024-01-07T13:00:53.342Z,163.12
2024-01-07T13:01:53.518Z,180.00
2024-01-07T13:02:53.221Z,213.75
2024-01-07T13:03:53.321Z,213.75
2024-01-07T13:04:53.346Z,185.62
2024-01-07T13:05:53.382Z,168.75
2024-01-07T13:06:53.270Z,151.88
2024-01-07T13:07:53.469Z,151.88
2024-01-07T13:08:53.225Z,146.25
2024-01-07T13:09:53.229Z,146.25
2024-01-07T13:10:53.190Z,135.00
2024-01-07T13:11:53.369Z,118.12
2024-01-07T13:12:55.809Z,106.88
2024-01-07T13:13:55.236Z,106.88
2024-01-07T13:14:53.185Z,106.88
2024-01-07T13:15:53.122Z,101.25
2024-01-07T13:16:53.123Z,95.62
2024-01-07T13:17:53.243Z,90.00
2024-01-07T13:18:53.206Z,84.38
2024-01-07T13:19:53.330Z,84.38
2024-01-07T13:20:53.105Z,84.38
2024-01-07T13:21:53.203Z,84.38
2024-01-07T13:22:53.363Z,78.75
2024-01-07T13:23:53.301Z,73.12
2024-01-07T13:24:53.146Z,73.12
2024-01-07T13:25:53.063Z,73.12
2024-01-07T13:26:53.170Z,67.50
2024-01-07T13:27:53.267Z,67.50
2024-01-07T13:28:53.899Z,73.12
2024-01-07T13:29:53.112Z,78.75
2024-01-07T13:30:53.061Z,78.75
2024-01-07T13:31:53.061Z,78.75
2024-01-07T13:32:53.106Z,78.75
2024-01-07T13:33:53.211Z,78.75
2024-01-07T13:34:53.060Z,78.75
2024-01-07T13:35:53.121Z,73.12
2024-01-07T13:36:53.039Z,67.50
2024-01-07T13:37:53.057Z,61.88
2024-01-07T13:38:52.999Z,61.88
2024-01-07T13:39:53.084Z,56.25
2024-01-07T13:40:53.238Z,56.25
2024-01-07T13:41:53.049Z,56.25
2024-01-07T13:42:53.002Z,56.25
2024-01-07T13:43:52.994Z,56.25
2024-01-07T13:44:52.962Z,56.25
2024-01-07T13:45:53.014Z,56.25
2024-01-07T13:46:53.054Z,50.62
2024-01-07T13:47:53.133Z,50.62
2024-01-07T13:48:53.256Z,50.62
2024-01-07T13:49:53.077Z,50.62
2024-01-07T13:50:53.100Z,50.62
2024-01-07T13:51:53.013Z,50.62
2024-01-07T13:52:52.978Z,56.25
2024-01-07T13:53:52.892Z,56.25
2024-01-07T13:54:52.987Z,50.62
2024-01-07T13:55:52.981Z,50.62
2024-01-07T13:56:52.915Z,50.62
2024-01-07T13:57:52.900Z,50.62
2024-01-07T13:58:52.879Z,50.62
2024-01-07T13:59:52.826Z,50.62
2024-01-07T14:00:53.214Z,50.62
2024-01-07T14:01:54.091Z,50.62
2024-01-07T14:02:52.945Z,45.00
2024-01-07T14:03:53.656Z,45.00
2024-01-07T14:04:52.979Z,45.00
2024-01-07T14:05:52.829Z,39.38
2024-01-07T14:06:53.442Z,39.38
2024-01-07T14:07:52.986Z,39.38
2024-01-07T14:08:52.945Z,39.38
2024-01-07T14:09:52.824Z,39.38
2024-01-07T14:10:52.803Z,33.75
2024-01-07T14:11:53.581Z,33.75
2024-01-07T14:12:52.971Z,33.75
2024-01-07T14:14:30.585Z,28.12
2024-01-07T14:15:28.862Z,28.12
2024-01-07T14:15:53.045Z,28.12
2024-01-07T14:16:52.938Z,28.12
2024-01-07T14:17:53.058Z,28.12
2024-01-07T14:18:53.545Z,22.50
2024-01-07T14:19:52.788Z,22.50
2024-01-07T14:20:52.783Z,22.50
2024-01-07T14:21:53.547Z,22.50
2024-01-07T14:22:52.782Z,22.50
2024-01-07T14:23:52.754Z,16.88
2024-01-07T14:24:52.734Z,16.88
2024-01-07T14:25:52.830Z,16.88
2024-01-07T14:26:52.874Z,16.88
2024-01-07T14:27:52.730Z,16.88
2024-01-07T14:29:04.870Z,16.88
2024-01-07T14:29:54.652Z,16.88
2024-01-07T14:30:52.686Z,16.88
2024-01-07T14:31:52.738Z,16.88
2024-01-07T14:32:52.860Z,16.88
2024-01-07T14:33:52.817Z,16.88
2024-01-07T14:34:52.790Z,11.25
2024-01-07T14:35:52.608Z,11.25
2024-01-07T14:36:52.726Z,11.25
2024-01-07T14:37:52.663Z,11.25
2024-01-07T14:38:52.628Z,11.25
2024-01-07T14:39:52.689Z,11.25
2024-01-07T14:40:52.718Z,16.88
2024-01-07T14:41:52.692Z,16.88
2024-01-07T14:42:52.641Z,11.25
2024-01-07T14:43:52.640Z,11.25
2024-01-07T14:44:52.688Z,11.25
2024-01-07T14:45:52.593Z,11.25
2024-01-07T14:46:52.618Z,11.25
2024-01-07T14:47:52.750Z,11.25
2024-01-07T14:48:52.775Z,11.25
2024-01-07T14:49:52.630Z,11.25
2024-01-07T14:50:52.633Z,11.25
2024-01-07T14:51:52.613Z,11.25
2024-01-07T14:52:52.605Z,11.25
2024-01-07T14:53:52.592Z,11.25
2024-01-07T14:54:52.505Z,11.25
2024-01-07T14:55:52.520Z,11.25
2024-01-07T14:56:52.516Z,5.62
2024-01-07T14:57:52.584Z,5.62
2024-01-07T14:58:52.545Z,5.62
2024-01-07T14:59:52.488Z,5.62
2024-01-07T15:00:52.608Z,5.62
2024-01-07T15:01:52.676Z,5.62
2024-01-07T15:02:52.668Z,5.62
2024-01-07T15:03:53.452Z,5.62
2024-01-07T15:04:52.565Z,5.62
2024-01-07T15:05:52.557Z,5.62
2024-01-07T15:06:52.709Z,5.62
2024-01-07T15:07:52.579Z,5.62
2024-01-07T15:08:52.648Z,5.62
2024-01-07T15:09:52.489Z,5.62
2024-01-07T15:10:52.661Z,5.62
2024-01-07T15:11:52.547Z,5.62
2024-01-07T15:12:58.442Z,0.00
2024-01-07T15:13:53.891Z,5.62
2024-01-07T15:14:52.551Z,0.00
2024-01-07T15:15:52.475Z,0.00
2024-01-07T15:16:52.361Z,0.00
2024-01-07T15:17:52.463Z,0.00
2024-01-07T15:18:52.562Z,0.00
2024-01-07T15:19:52.607Z,0.00
2024-01-07T15:20:52.468Z,0.00
2024-01-07T15:21:52.519Z,0.00
2024-01-07T15:22:52.453Z,0.00
2024-01-07T15:23:52.653Z,0.00
2024-01-07T15:24:52.492Z,0.00
2024-01-07T15:25:52.372Z,0.00
2024-01-07T15:26:52.413Z,0.00
2024-01-07T15:29:01.294Z,0.00
2024-01-07T15:30:02.462Z,0.00
2024-01-07T15:31:02.508Z,0.00
2024-01-07T15:32:02.558Z,0.00
2024-01-07T15:33:02.571Z,0.00
2024-01-07T15:34:02.702Z,0.00
2024-01-07T15:35:02.657Z,0.00
2024-01-07T15:36:02.357Z,0.00
2024-01-07T15:37:02.416Z,0.00
2024-01-07T15:38:02.350Z,0.00
2024-01-07T15:39:02.381Z,0.00
2024-01-07T15:40:02.483Z,0.00
2024-01-07T15:41:02.296Z,0.00
2024-01-07T15:42:02.381Z,0.00
2024-01-07T15:43:02.372Z,0.00
2024-01-07T15:44:02.514Z,0.00
2024-01-07T15:45:02.317Z,0.00
2024-01-07T15:46:02.332Z,0.00
2024-01-07T15:47:02.282Z,0.00
2024-01-07T15:48:02.349Z,0.00
2024-01-07T15:49:02.428Z,0.00
2024-01-07T15:50:02.459Z,0.00
2024-01-07T15:51:02.261Z,0.00
2024-01-07T15:52:02.340Z,0.00
2024-01-07T15:53:04.189Z,0.00
2024-01-07T15:54:02.275Z,0.00
2024-01-07T15:55:02.768Z,0.00
2024-01-07T15:56:02.251Z,0.00
2024-01-07T15:57:02.229Z,0.00
2024-01-07T15:58:02.444Z,0.00
2024-01-07T15:59:03.265Z,0.00
2024-01-07T16:00:02.404Z,0.00
2024-01-07T16:01:02.507Z,0.00
2024-01-07T16:02:02.768Z,0.00
2024-01-07T16:03:02.360Z,0.00
2024-01-07T16:04:02.277Z,0.00
2024-01-07T16:05:02.225Z,0.00
2024-01-07T16:06:02.255Z,0.00
2024-01-07T16:07:02.239Z,0.00
2024-01-07T16:08:02.193Z,0.00
2024-01-07T16:09:02.133Z,0.00
2024-01-07T16:10:02.319Z,0.00
2024-01-07T16:11:03.103Z,0.00
2024-01-07T16:12:02.119Z,0.00
2024-01-07T16:13:02.253Z,0.00
2024-01-07T16:14:02.105Z,0.00
2024-01-07T16:15:02.194Z,0.00
2024-01-07T16:16:02.712Z,0.00
2024-01-07T16:17:02.151Z,0.00
2024-01-07T16:18:02.174Z,0.00
2024-01-07T16:19:02.118Z,0.00
2024-01-07T16:20:02.223Z,0.00
2024-01-07T16:21:02.248Z,0.00
2024-01-07T16:22:02.098Z,0.00
2024-01-07T16:23:02.165Z,0.00
2024-01-07T16:24:02.137Z,0.00
2024-01-07T16:25:02.191Z,0.00
2024-01-07T16:26:02.377Z,0.00
2024-01-07T16:27:02.124Z,0.00
2024-01-07T16:28:02.043Z,0.00
2024-01-07T16:29:02.117Z,0.00
2024-01-07T16:30:02.070Z,0.00
2024-01-07T16:31:02.207Z,0.00
2024-01-07T16:32:02.078Z,0.00
2024-01-07T16:33:03.268Z,0.00
2024-01-07T16:34:02.142Z,0.00
2024-01-07T16:35:02.205Z,0.00
2024-01-07T16:36:02.078Z,0.00
2024-01-07T16:37:02.027Z,0.00
2024-01-07T16:38:02.823Z,0.00
2024-01-07T16:39:02.147Z,0.00
2024-01-07T16:40:02.578Z,0.00
2024-01-07T16:41:02.623Z,0.00
2024-01-07T16:42:02.053Z,0.00
2024-01-07T16:43:35.661Z,0.00
2024-01-07T16:44:01.999Z,0.00
2024-01-07T16:45:02.023Z,0.00
2024-01-07T16:46:02.044Z,0.00
2024-01-07T16:47:01.881Z,0.00
2024-01-07T16:48:02.048Z,0.00
2024-01-07T16:50:21.188Z,0.00
2024-01-07T16:51:04.036Z,0.00
2024-01-07T16:52:02.093Z,0.00
2024-01-07T16:53:02.011Z,0.00
2024-01-07T16:54:02.003Z,0.00
2024-01-07T16:55:02.277Z,0.00
2024-01-07T16:56:01.957Z,0.00
2024-01-07T16:57:02.053Z,0.00
2024-01-07T16:58:02.120Z,0.00
2024-01-07T16:59:02.488Z,0.00
2024-01-07T17:00:01.881Z,0.00
2024-01-07T17:01:01.980Z,0.00
2024-01-07T17:02:01.935Z,0.00
2024-01-07T17:03:01.832Z,0.00
2024-01-07T17:04:02.247Z,0.00
2024-01-07T17:05:02.637Z,0.00
2024-01-07T17:06:03.553Z,0.00
2024-01-07T17:07:03.300Z,0.00
2024-01-07T17:08:02.807Z,0.00
2024-01-07T17:09:02.084Z,0.00
2024-01-07T17:10:02.462Z,0.00
2024-01-07T17:11:02.179Z,0.00
2024-01-07T17:12:02.338Z,0.00
2024-01-07T17:13:02.516Z,0.00
2024-01-07T17:14:02.200Z,0.00
2024-01-07T17:15:02.983Z,0.00
2024-01-07T17:16:03.661Z,0.00
2024-01-07T17:17:03.019Z,0.00
2024-01-07T17:18:02.844Z,0.00
2024-01-07T17:19:07.149Z,0.00
2024-01-07T17:20:03.776Z,0.00
2024-01-07T17:21:05.602Z,0.00
2024-01-07T17:22:03.193Z,0.00
2024-01-07T17:23:02.285Z,0.00
2024-01-07T17:24:02.247Z,0.00
2024-01-07T17:25:06.124Z,0.00
2024-01-07T17:26:02.893Z,0.00
2024-01-07T17:27:01.843Z,0.00
2024-01-07T17:28:02.113Z,0.00
2024-01-07T17:29:02.005Z,0.00
2024-01-07T17:30:01.947Z,0.00
2024-01-07T17:31:03.652Z,0.00
2024-01-07T17:32:03.117Z,0.00
2024-01-07T17:33:02.088Z,0.00
2024-01-07T17:34:02.051Z,0.00
2024-01-07T17:35:01.909Z,0.00
2024-01-07T17:36:01.710Z,0.00
2024-01-07T17:37:02.657Z,0.00
2024-01-07T17:38:01.886Z,0.00
2024-01-07T17:39:01.744Z,0.00
2024-01-07T17:40:01.711Z,0.00
2024-01-07T17:41:01.621Z,0.00
2024-01-07T17:42:01.714Z,0.00
2024-01-07T17:43:02.205Z,0.00
2024-01-07T17:44:01.654Z,0.00
2024-01-07T17:45:02.007Z,0.00
2024-01-07T17:46:02.021Z,0.00
2024-01-07T17:47:01.631Z,0.00
2024-01-07T17:48:01.504Z,0.00
2024-01-07T17:49:01.584Z,0.00
2024-01-07T17:50:01.792Z,0.00
2024-01-07T17:51:02.088Z,0.00
2024-01-07T17:52:41.705Z,0.00
2024-01-07T17:53:01.925Z,0.00
2024-01-07T17:54:01.666Z,0.00
2024-01-07T17:55:44.375Z,0.00
2024-01-07T17:56:01.635Z,0.00
2024-01-07T17:59:48.445Z,0.00
2024-01-07T18:00:49.728Z,0.00
2024-01-07T18:02:27.373Z,0.00
2024-01-07T18:03:29.899Z,0.00
2024-01-07T18:03:49.678Z,0.00
2024-01-07T18:04:49.620Z,0.00
2024-01-07T18:05:49.680Z,0.00
2024-01-07T18:06:49.563Z,0.00
2024-01-07T18:07:49.541Z,0.00
2024-01-07T18:08:52.791Z,0.00
2024-01-07T18:09:50.548Z,0.00
2024-01-07T18:10:50.423Z,0.00
2024-01-07T18:11:49.482Z,0.00
2024-01-07T18:12:49.608Z,0.00
2024-01-07T18:13:49.594Z,0.00
2024-01-07T18:14:49.537Z,0.00
2024-01-07T18:15:49.658Z,0.00
2024-01-07T18:16:50.033Z,0.00
2024-01-07T18:18:27.360Z,0.00
2024-01-07T18:18:49.822Z,0.00
2024-01-07T18:20:29.814Z,0.00
2024-01-07T18:20:50.808Z,0.00
2024-01-07T18:23:17.509Z,0.00
2024-01-07T18:24:54.562Z,0.00
2024-01-07T18:25:18.592Z,0.00
2024-01-07T18:26:55.668Z,0.00
2024-01-07T18:27:18.525Z,0.00
2024-01-07T18:28:18.449Z,0.00
2024-01-07T18:29:18.546Z,0.00
2024-01-07T18:30:18.701Z,0.00
2024-01-07T18:31:18.440Z,0.00
2024-01-07T18:32:18.561Z,0.00
2024-01-07T18:33:18.377Z,0.00
2024-01-07T18:34:18.364Z,0.00
2024-01-07T18:35:18.423Z,0.00
2024-01-07T18:36:18.422Z,0.00
2024-01-07T18:37:18.412Z,0.00
2024-01-07T18:38:18.495Z,0.00
2024-01-07T18:39:18.325Z,0.00
2024-01-07T18:40:18.303Z,0.00
2024-01-07T18:41:20.228Z,0.00
2024-01-07T18:42:18.396Z,0.00
2024-01-07T18:43:18.289Z,0.00
2024-01-07T18:44:18.481Z,0.00
2024-01-07T18:45:18.355Z,0.00
2024-01-07T18:46:18.305Z,0.00
2024-01-07T18:47:18.362Z,0.00
2024-01-07T18:48:18.606Z,0.00
2024-01-07T18:49:18.390Z,0.00
2024-01-07T18:50:18.308Z,0.00
2024-01-07T18:51:18.288Z,0.00
2024-01-07T18:52:18.428Z,0.00
2024-01-07T18:53:18.341Z,0.00
2024-01-07T18:54:18.329Z,0.00
2024-01-07T18:55:18.233Z,0.00
2024-01-07T18:56:18.287Z,0.00
2024-01-07T18:57:18.277Z,0.00
2024-01-07T18:58:18.400Z,0.00
2024-01-07T18:59:18.295Z,0.00
2024-01-07T19:00:18.365Z,0.00
2024-01-07T19:01:18.418Z,0.00
2024-01-07T19:02:18.495Z,0.00
2024-01-07T19:03:18.273Z,0.00
2024-01-07T19:04:18.345Z,0.00
2024-01-07T19:05:18.354Z,0.00
2024-01-07T19:06:18.285Z,0.00
2024-01-07T19:07:18.228Z,0.00
2024-01-07T19:08:18.164Z,0.00
2024-01-07T19:09:18.246Z,0.00
2024-01-07T19:10:18.246Z,0.00
2024-01-07T19:11:18.433Z,0.00
2024-01-07T19:12:18.183Z,0.00
2024-01-07T19:13:18.138Z,0.00
2024-01-07T19:14:18.154Z,0.00
2024-01-07T19:15:18.481Z,0.00
2024-01-07T19:16:18.116Z,0.00
2024-01-07T19:17:18.145Z,0.00
2024-01-07T19:18:18.253Z,0.00
2024-01-07T19:19:18.210Z,0.00
2024-01-07T19:20:18.106Z,0.00
2024-01-07T19:21:18.158Z,0.00
2024-01-07T19:22:18.115Z,0.00
2024-01-07T19:23:18.130Z,0.00
2024-01-07T19:24:18.042Z,0.00
2024-01-07T19:25:18.069Z,0.00
2024-01-07T19:26:18.122Z,0.00
2024-01-07T19:27:18.174Z,0.00
2024-01-07T19:28:18.037Z,0.00
2024-01-07T19:29:18.271Z,0.00
2024-01-07T19:30:18.015Z,0.00
2024-01-07T19:31:18.065Z,0.00
2024-01-07T19:32:18.764Z,0.00
2024-01-07T19:33:18.033Z,0.00
2024-01-07T19:34:18.107Z,0.00
2024-01-07T19:35:18.037Z,0.00
2024-01-07T19:36:17.987Z,0.00
2024-01-07T19:37:18.042Z,0.00
2024-01-07T19:38:18.096Z,0.00
2024-01-07T19:39:18.033Z,0.00
2024-01-07T19:40:18.044Z,0.00
2024-01-07T19:41:18.055Z,0.00
2024-01-07T19:42:17.975Z,0.00
2024-01-07T19:43:17.997Z,0.00
2024-01-07T19:44:20.287Z,0.00
2024-01-07T19:45:18.938Z,0.00
2024-01-07T19:46:17.993Z,0.00
2024-01-07T19:47:18.072Z,0.00
2024-01-07T19:48:18.077Z,0.00
2024-01-07T19:49:18.050Z,0.00
2024-01-07T19:50:18.028Z,0.00
2024-01-07T19:51:17.982Z,0.00
2024-01-07T19:52:17.865Z,0.00
2024-01-07T19:53:23.996Z,0.00
2024-01-07T19:54:19.908Z,0.00
2024-01-07T19:55:17.890Z,0.00
2024-01-07T19:56:17.906Z,0.00
2024-01-07T19:57:18.226Z,0.00
2024-01-07T19:58:17.889Z,0.00
2024-01-07T19:59:17.937Z,0.00
2024-01-07T20:00:17.876Z,0.00
2024-01-07T20:01:17.879Z,0.00
2024-01-07T20:02:17.901Z,0.00
2024-01-07T20:03:17.885Z,0.00
2024-01-07T20:04:17.902Z,0.00
2024-01-07T20:05:17.992Z,0.00
2024-01-07T20:06:17.880Z,0.00
2024-01-07T20:07:17.801Z,0.00
2024-01-07T20:08:17.819Z,0.00
2024-01-07T20:09:18.517Z,0.00
2024-01-07T20:10:17.902Z,0.00
2024-01-07T20:11:17.828Z,0.00
2024-01-07T20:12:17.803Z,0.00
2024-01-07T20:13:17.783Z,0.00
2024-01-07T20:14:17.804Z,0.00
2024-01-07T20:15:17.976Z,0.00
2024-01-07T20:16:18.159Z,0.00
2024-01-07T20:17:17.838Z,0.00
2024-01-07T20:18:17.956Z,0.00
2024-01-07T20:19:17.832Z,0.00
2024-01-07T20:20:19.661Z,0.00
2024-01-07T20:21:17.868Z,0.00
2024-01-07T20:22:17.690Z,0.00
2024-01-07T20:23:17.743Z,0.00
2024-01-07T20:24:17.691Z,0.00
2024-01-07T20:25:17.717Z,0.00
2024-01-07T20:26:17.755Z,0.00
2024-01-07T20:27:17.674Z,0.00
2024-01-07T20:28:17.737Z,0.00
2024-01-07T20:29:17.725Z,0.00
2024-01-07T20:30:17.947Z,0.00
2024-01-07T20:31:18.691Z,0.00
2024-01-07T20:32:17.703Z,0.00
2024-01-07T20:33:17.740Z,0.00
2024-01-07T20:34:17.684Z,0.00
2024-01-07T20:35:18.295Z,0.00
2024-01-07T20:36:17.705Z,0.00
2024-01-07T20:37:17.629Z,0.00
2024-01-07T20:38:17.654Z,0.00
2024-01-07T20:39:17.626Z,0.00
2024-01-07T20:40:17.609Z,0.00
2024-01-07T20:41:17.726Z,0.00
2024-01-07T20:42:27.376Z,0.00
2024-01-07T20:43:19.545Z,0.00
2024-01-07T20:44:17.724Z,0.00
2024-01-07T20:45:17.613Z,0.00
2024-01-07T20:46:17.572Z,0.00
2024-01-07T20:47:17.596Z,0.00
2024-01-07T20:48:17.658Z,0.00
2024-01-07T20:49:17.674Z,0.00
2024-01-07T20:50:17.666Z,0.00
2024-01-07T20:51:17.562Z,0.00
2024-01-07T20:52:17.514Z,0.00
2024-01-07T20:53:17.577Z,0.00
2024-01-07T20:54:18.317Z,0.00
2024-01-07T20:55:17.501Z,0.00
2024-01-07T20:56:17.607Z,0.00
2024-01-07T20:57:17.561Z,0.00
2024-01-07T20:58:17.594Z,0.00
2024-01-07T20:59:17.516Z,0.00
2024-01-07T21:00:17.519Z,0.00
2024-01-07T21:01:17.561Z,0.00
2024-01-07T21:02:17.591Z,0.00
2024-01-07T21:03:17.521Z,0.00
2024-01-07T21:04:17.523Z,0.00
2024-01-07T21:05:17.482Z,0.00
2024-01-07T21:06:17.597Z,0.00
2024-01-07T21:07:17.482Z,0.00
2024-01-07T21:08:17.453Z,0.00
2024-01-07T21:09:17.503Z,0.00
2024-01-07T21:10:17.415Z,0.00
2024-01-07T21:11:17.453Z,0.00
2024-01-07T21:12:17.415Z,0.00
2024-01-07T21:13:17.476Z,0.00
2024-01-07T21:14:17.454Z,0.00
2024-01-07T21:15:17.733Z,0.00
2024-01-07T21:16:17.421Z,0.00
2024-01-07T21:17:17.412Z,0.00
2024-01-07T21:18:17.483Z,0.00
2024-01-07T21:19:17.393Z,0.00
2024-01-07T21:20:17.398Z,0.00
2024-01-07T21:21:17.355Z,0.00
2024-01-07T21:22:17.362Z,0.00
2024-01-07T21:23:17.630Z,0.00
2024-01-07T21:24:17.319Z,0.00
2024-01-07T21:25:17.356Z,0.00
2024-01-07T21:26:17.379Z,0.00
2024-01-07T21:27:17.307Z,0.00
2024-01-07T21:28:17.329Z,0.00
2024-01-07T21:29:17.458Z,0.00
2024-01-07T21:30:17.386Z,0.00
2024-01-07T21:31:17.312Z,0.00
2024-01-07T21:32:17.438Z,0.00
2024-01-07T21:33:17.558Z,0.00
2024-01-07T21:34:17.441Z,0.00
2024-01-07T21:35:17.351Z,0.00
2024-01-07T21:36:17.280Z,0.00
2024-01-07T21:37:17.272Z,0.00
2024-01-07T21:38:17.289Z,0.00
2024-01-07T21:39:17.261Z,0.00
2024-01-07T21:40:17.238Z,0.00
2024-01-07T21:41:17.291Z,0.00
2024-01-07T21:42:17.260Z,0.00
2024-01-07T21:43:18.186Z,0.00
2024-01-07T21:44:19.892Z,0.00
2024-01-07T21:45:17.216Z,0.00
2024-01-07T21:46:17.223Z,0.00
2024-01-07T21:47:17.256Z,0.00
2024-01-07T21:48:17.207Z,0.00
2024-01-07T21:49:17.344Z,0.00
2024-01-07T21:50:17.401Z,0.00
2024-01-07T21:51:17.188Z,0.00
2024-01-07T21:52:17.178Z,0.00
2024-01-07T21:53:17.236Z,0.00
2024-01-07T21:54:17.259Z,0.00
2024-01-07T21:55:17.217Z,0.00
2024-01-07T21:56:17.243Z,0.00
2024-01-07T21:57:17.131Z,0.00